CPX202 Details

Departure: Washington Dulles International Airport (KIAD)
Arrival: Miami International Airport (KMIA)
Route: JDUBB2 GSO J75 CAE J51 SAV J103 OMN HILEY7


Current Weather Information
KIAD 221205Z 32024G35KT 10SM BKN038 BKN048 06/M02 A2963 RMK AO2 PK WND 30035/1156 T00611017
KMIA 221153Z 32006KT 10SM CLR 16/12 A3007 RMK AO2 SLP184 T01560117 10172 20150 53016